Time;durP1;ratioP1;P1;durP2;ratioP2;P2;SDS_P1;SDS_P2;PMS_P1;PMS_P2;Temp;Humidity;BMP_temperature;BMP_pressure;BME280_temperature;BME280_humidity;BME280_pressure;Samples;Min_cycle;Max_cycle;Signal;HPM_P1;HPM_P2
2022/03/04 00:02:23;;;;;;;34.85;18.27;;;;;;;;;;10162333;29;20036;-74
2022/03/04 00:07:23;;;;;;;29.13;15.35;;;;;;;;;;10176646;29;20059;-72
2022/03/04 00:12:23;;;;;;;29.08;15.95;;;;;;;;;;10176382;29;20528;-72
2022/03/04 00:17:24;;;;;;;26.83;16.30;;;;;;;;;;10161698;29;20043;-74
2022/03/04 00:22:24;;;;;;;37.38;17.20;;;;;;;;;;10176375;29;20106;-73
2022/03/04 00:27:24;;;;;;;35.08;15.40;;;;;;;;;;10176818;29;20115;-73
2022/03/04 00:32:25;;;;;;;26.15;16.80;;;;;;;;;;10175943;28;20559;-75
2022/03/04 00:37:25;;;;;;;29.58;16.80;;;;;;;;;;10176421;29;20400;-73
2022/03/04 00:42:27;;;;;;;27.50;16.77;;;;;;;;;;10160242;29;20028;-73
2022/03/04 00:47:41;;;;;;;41.33;21.23;;;;;;;;;;10443126;27;20384;-74
2022/03/04 00:52:41;;;;;;;40.23;19.97;;;;;;;;;;10441876;28;20150;-75
2022/03/04 00:57:42;;;;;;;36.05;19.98;;;;;;;;;;10439753;28;20347;-73
2022/03/04 01:02:42;;;;;;;43.40;21.87;;;;;;;;;;10439577;28;20280;-74
2022/03/04 01:07:43;;;;;;;47.42;22.48;;;;;;;;;;10439628;28;20024;-74
2022/03/04 01:12:45;;;;;;;47.53;26.10;;;;;;;;;;10441035;28;20025;-74
2022/03/04 01:17:46;;;;;;;39.45;22.58;;;;;;;;;;10439674;28;20041;-74
2022/03/04 01:22:46;;;;;;;39.33;20.48;;;;;;;;;;10440384;28;20028;-75
2022/03/04 01:27:46;;;;;;;38.42;18.15;;;;;;;;;;10438782;28;20013;-73
2022/03/04 01:32:47;;;;;;;40.00;21.85;;;;;;;;;;10438746;28;20013;-72
2022/03/04 01:37:47;;;;;;;40.80;20.77;;;;;;;;;;10438955;28;20017;-72
2022/03/04 01:42:48;;;;;;;43.97;21.80;;;;;;;;;;10437790;28;20064;-72
2022/03/04 01:47:48;;;;;;;34.50;14.38;;;;;;;;;;10439474;28;20021;-73
2022/03/04 01:52:48;;;;;;;23.52;14.70;;;;;;;;;;10464593;28;20024;-72
2022/03/04 01:57:49;;;;;;;22.67;12.98;;;;;;;;;;10458769;28;20033;-73
2022/03/04 02:02:49;;;;;;;22.10;12.90;;;;;;;;;;10451174;28;20014;-72
2022/03/04 02:07:49;;;;;;;17.08;10.80;;;;;;;;;;10451580;28;20292;-74
2022/03/04 02:12:50;;;;;;;22.98;10.70;;;;;;;;;;10451043;28;20017;-74
2022/03/04 02:17:50;;;;;;;21.42;12.05;;;;;;;;;;10450597;28;20475;-73
2022/03/04 02:22:51;;;;;;;17.17;11.23;;;;;;;;;;10450465;28;20068;-73
2022/03/04 02:27:51;;;;;;;15.68;10.27;;;;;;;;;;10450457;28;20021;-73
2022/03/04 02:32:51;;;;;;;20.05;11.60;;;;;;;;;;10450628;28;20021;-73
2022/03/04 02:37:51;;;;;;;19.85;12.77;;;;;;;;;;10451598;28;20406;-74
2022/03/04 02:42:52;;;;;;;19.15;12.85;;;;;;;;;;10449215;28;20025;-74
2022/03/04 02:47:52;;;;;;;18.60;11.90;;;;;;;;;;10449394;28;20029;-73
2022/03/04 02:52:53;;;;;;;21.77;11.77;;;;;;;;;;10449502;28;20103;-72
2022/03/04 02:57:53;;;;;;;24.13;12.15;;;;;;;;;;10449261;28;20539;-72
2022/03/04 03:02:54;;;;;;;20.70;13.18;;;;;;;;;;10448874;28;20067;-72
2022/03/04 03:07:54;;;;;;;22.03;14.50;;;;;;;;;;10447660;28;20032;-74
2022/03/04 03:12:54;;;;;;;23.50;13.23;;;;;;;;;;10449228;28;20343;-72
2022/03/04 03:17:55;;;;;;;28.05;13.82;;;;;;;;;;10448681;28;20107;-74
2022/03/04 03:22:58;;;;;;;22.35;17.13;;;;;;;;;;10452359;28;20025;-73
2022/03/04 03:27:59;;;;;;;21.42;12.40;;;;;;;;;;10450040;28;20024;-74
2022/03/04 03:32:59;;;;;;;24.10;14.50;;;;;;;;;;10448038;28;20029;-73
2022/03/04 03:38:00;;;;;;;20.40;13.30;;;;;;;;;;10447914;28;20024;-73
2022/03/04 03:43:00;;;;;;;20.90;11.57;;;;;;;;;;10447273;28;20300;-74
2022/03/04 03:48:00;;;;;;;24.27;13.73;;;;;;;;;;10447239;28;20499;-72
2022/03/04 03:53:00;;;;;;;25.33;12.65;;;;;;;;;;10446645;28;20043;-72
2022/03/04 03:58:01;;;;;;;21.77;13.18;;;;;;;;;;10446286;28;20028;-72
2022/03/04 04:03:01;;;;;;;27.70;12.05;;;;;;;;;;10447147;28;20021;-72
2022/03/04 04:08:01;;;;;;;25.73;15.80;;;;;;;;;;10446099;28;20518;-74
2022/03/04 04:13:02;;;;;;;22.05;14.07;;;;;;;;;;10447657;28;20029;-74
2022/03/04 04:18:02;;;;;;;22.87;12.83;;;;;;;;;;10447322;28;20029;-74
2022/03/04 04:23:02;;;;;;;25.97;13.40;;;;;;;;;;10445858;28;20627;-72
2022/03/04 04:28:03;;;;;;;27.67;15.52;;;;;;;;;;10446690;28;20032;-72
2022/03/04 04:33:03;;;;;;;23.17;13.70;;;;;;;;;;10421392;28;20040;-73
2022/03/04 04:38:04;;;;;;;21.15;12.20;;;;;;;;;;10404280;28;20601;-74
2022/03/04 04:43:05;;;;;;;27.85;13.43;;;;;;;;;;10429935;28;20044;-73
2022/03/04 04:48:05;;;;;;;24.75;14.85;;;;;;;;;;10411142;28;20026;-73
2022/03/04 04:53:05;;;;;;;25.80;16.27;;;;;;;;;;10434954;28;20090;-73
2022/03/04 04:58:06;;;;;;;29.70;17.35;;;;;;;;;;10424978;28;20025;-75
2022/03/04 05:03:06;;;;;;;30.45;17.95;;;;;;;;;;10404986;28;20094;-77
2022/03/04 05:08:06;;;;;;;29.40;18.00;;;;;;;;;;10404190;28;20033;-73
2022/03/04 05:13:07;;;;;;;27.20;17.98;;;;;;;;;;10432260;28;20034;-76
2022/03/04 05:18:08;;;;;;;34.30;16.63;;;;;;;;;;10444583;28;20194;-74
2022/03/04 05:23:08;;;;;;;33.08;17.92;;;;;;;;;;10456675;28;20035;-75
2022/03/04 05:28:08;;;;;;;43.97;22.63;;;;;;;;;;10444147;28;20510;-74
2022/03/04 05:33:09;;;;;;;47.42;27.35;;;;;;;;;;10450012;28;20090;-75
2022/03/04 05:38:09;;;;;;;45.65;25.63;;;;;;;;;;10421735;28;20022;-74
2022/03/04 05:43:10;;;;;;;57.63;26.63;;;;;;;;;;10428175;28;20057;-75
2022/03/04 05:48:10;;;;;;;47.05;28.60;;;;;;;;;;10427875;28;20017;-77
2022/03/04 05:53:11;;;;;;;54.47;27.42;;;;;;;;;;10411431;28;20025;-75
2022/03/04 05:58:11;;;;;;;39.63;25.70;;;;;;;;;;10427075;28;20021;-74
2022/03/04 06:03:12;;;;;;;48.97;22.95;;;;;;;;;;10409522;28;20021;-75
2022/03/04 06:08:12;;;;;;;45.85;24.45;;;;;;;;;;10409834;28;20021;-75
2022/03/04 06:13:13;;;;;;;41.60;23.08;;;;;;;;;;10410603;28;20025;-76
2022/03/04 06:18:13;;;;;;;48.47;24.13;;;;;;;;;;10410016;28;20404;-75
2022/03/04 06:23:13;;;;;;;43.83;23.52;;;;;;;;;;10410292;28;20647;-76
2022/03/04 06:28:14;;;;;;;62.42;25.15;;;;;;;;;;10410137;28;20380;-74
2022/03/04 06:33:32;;;;;;;61.25;29.15;;;;;;;;;;10417361;28;20494;-76
2022/03/04 06:38:34;;;;;;;;;;;;;;;;;;10446286;28;20036;-76
2022/03/04 06:43:34;;;;;;;39.15;24.95;;;;;;;;;;10436733;28;19925;-74
2022/03/04 06:48:35;;;;;;;60.45;32.22;;;;;;;;;;10447071;28;20024;-78
2022/03/04 06:53:35;;;;;;;59.95;29.92;;;;;;;;;;10446811;28;20024;-76
2022/03/04 06:58:36;;;;;;;73.35;32.65;;;;;;;;;;10448625;28;20638;-74
2022/03/04 07:03:37;;;;;;;60.63;27.87;;;;;;;;;;10445595;28;20021;-79
2022/03/04 07:08:38;;;;;;;62.03;27.90;;;;;;;;;;10447983;28;20271;-76
2022/03/04 07:13:38;;;;;;;58.30;27.08;;;;;;;;;;10447583;28;20033;-79
2022/03/04 07:18:38;;;;;;;49.70;27.02;;;;;;;;;;10444214;28;20495;-74
2022/03/04 07:23:38;;;;;;;53.35;27.75;;;;;;;;;;10404950;28;20025;-76
2022/03/04 07:28:39;;;;;;;60.10;26.13;;;;;;;;;;10408484;28;20021;-77
2022/03/04 07:33:39;;;;;;;58.47;30.23;;;;;;;;;;10431480;28;20028;-74
2022/03/04 07:38:40;;;;;;;59.65;30.13;;;;;;;;;;10446603;28;20025;-73
2022/03/04 07:43:40;;;;;;;51.83;27.83;;;;;;;;;;10446002;28;20044;-74
2022/03/04 07:48:40;;;;;;;53.13;29.10;;;;;;;;;;10445783;28;20486;-77
2022/03/04 07:53:40;;;;;;;53.60;26.48;;;;;;;;;;10445558;28;20024;-74
2022/03/04 07:58:41;;;;;;;53.60;27.37;;;;;;;;;;10442918;28;20104;-73
2022/03/04 08:03:42;;;;;;;55.90;28.47;;;;;;;;;;10405886;28;20022;-74
2022/03/04 08:08:43;;;;;;;40.58;23.40;;;;;;;;;;10439390;28;20028;-77
2022/03/04 08:13:43;;;;;;;45.25;23.05;;;;;;;;;;10440260;28;20033;-74
2022/03/04 08:18:44;;;;;;;43.88;21.20;;;;;;;;;;10406126;28;20029;-74
2022/03/04 08:23:44;;;;;;;38.83;21.47;;;;;;;;;;10403777;28;20527;-76
2022/03/04 08:28:44;;;;;;;39.13;20.05;;;;;;;;;;10432229;28;20033;-79
2022/03/04 08:33:45;;;;;;;44.38;19.05;;;;;;;;;;10445515;28;20482;-76
2022/03/04 08:38:47;;;;;;;44.67;17.92;;;;;;;;;;10444108;28;20035;-75
2022/03/04 08:43:49;;;;;;;48.20;21.58;;;;;;;;;;10445228;28;20049;-78
2022/03/04 08:48:49;;;;;;;40.15;20.20;;;;;;;;;;10445334;28;20568;-79
2022/03/04 08:53:51;;;;;;;38.80;19.30;;;;;;;;;;10444891;28;20017;-77
2022/03/04 08:58:51;;;;;;;53.97;20.38;;;;;;;;;;10448590;28;20758;-76
2022/03/04 09:03:52;;;;;;;41.83;21.50;;;;;;;;;;10452865;28;20082;-74
2022/03/04 09:08:52;;;;;;;47.42;21.27;;;;;;;;;;10453634;28;20270;-73
2022/03/04 09:13:52;;;;;;;55.00;21.95;;;;;;;;;;10453924;28;20398;-74
2022/03/04 09:18:52;;;;;;;40.60;20.77;;;;;;;;;;10452655;28;20070;-75
2022/03/04 09:23:54;;;;;;;43.10;22.10;;;;;;;;;;10450713;28;20032;-75
2022/03/04 09:28:54;;;;;;;50.67;21.30;;;;;;;;;;10453087;28;20036;-76
2022/03/04 09:33:55;;;;;;;42.60;21.77;;;;;;;;;;10451897;28;20244;-75
2022/03/04 09:38:55;;;;;;;43.83;21.90;;;;;;;;;;10451071;28;20024;-78
2022/03/04 09:43:56;;;;;;;39.67;20.73;;;;;;;;;;10434377;28;20057;-75
2022/03/04 09:48:56;;;;;;;39.45;20.30;;;;;;;;;;10410096;28;20021;-75
2022/03/04 09:53:56;;;;;;;42.13;17.57;;;;;;;;;;10409491;28;20420;-75
2022/03/04 09:58:57;;;;;;;42.33;19.57;;;;;;;;;;10411194;28;20024;-75
2022/03/04 10:03:57;;;;;;;44.50;18.00;;;;;;;;;;10411455;28;20025;-76
2022/03/04 10:08:58;;;;;;;35.28;18.08;;;;;;;;;;10440654;28;20422;-75
2022/03/04 10:13:59;;;;;;;42.83;20.23;;;;;;;;;;10451430;28;20495;-75
2022/03/04 10:19:04;;;;;;;40.80;19.35;;;;;;;;;;10443377;28;20017;-78
2022/03/04 10:24:08;;;;;;;39.80;18.23;;;;;;;;;;10409967;28;20570;-78
2022/03/04 10:29:22;;;;;;;33.03;17.02;;;;;;;;;;10439436;28;20426;-76
2022/03/04 10:34:22;;;;;;;42.15;17.80;;;;;;;;;;10451224;28;20495;-75
2022/03/04 10:39:23;;;;;;;36.17;17.60;;;;;;;;;;10450455;28;20021;-75
2022/03/04 10:44:27;;;;;;;31.98;15.60;;;;;;;;;;10428948;28;20053;-74
2022/03/04 10:49:30;;;;;;;32.95;15.73;;;;;;;;;;10420171;28;20075;-75
2022/03/04 10:54:30;;;;;;;32.53;17.40;;;;;;;;;;10449554;28;20114;-75
2022/03/04 10:59:30;;;;;;;31.23;17.15;;;;;;;;;;10448164;28;20092;-74
2022/03/04 11:04:30;;;;;;;28.23;16.25;;;;;;;;;;10449628;28;20029;-74
2022/03/04 11:09:31;;;;;;;35.38;16.83;;;;;;;;;;10446854;28;20186;-75
2022/03/04 11:14:31;;;;;;;30.55;14.27;;;;;;;;;;10447350;28;20031;-75
2022/03/04 11:19:33;;;;;;;36.55;16.45;;;;;;;;;;10447729;28;20535;-77
2022/03/04 11:24:36;;;;;;;30.05;14.57;;;;;;;;;;10447282;28;20082;-74
2022/03/04 11:29:36;;;;;;;29.33;14.43;;;;;;;;;;10445863;28;20020;-78
2022/03/04 11:34:41;;;;;;;38.83;18.52;;;;;;;;;;10446174;28;20025;-81
2022/03/04 11:40:01;;;;;;;41.22;16.17;;;;;;;;;;10453506;28;20107;-74
2022/03/04 11:45:02;;;;;;;29.80;16.15;;;;;;;;;;10429527;28;20041;-79
2022/03/04 11:50:22;;;;;;;38.33;17.10;;;;;;;;;;10445492;28;20083;-76
2022/03/04 11:55:23;;;;;;;39.15;16.67;;;;;;;;;;10429519;28;20032;-77
2022/03/04 12:00:24;;;;;;;40.45;20.33;;;;;;;;;;10404572;28;20029;-79
2022/03/04 12:05:26;;;;;;;30.60;18.23;;;;;;;;;;10404490;28;20342;-78
2022/03/04 12:10:27;;;;;;;42.53;21.15;;;;;;;;;;10403708;28;20399;-73
2022/03/04 12:15:28;;;;;;;37.88;19.05;;;;;;;;;;10422170;28;20495;-76
2022/03/04 12:20:28;;;;;;;24.02;14.40;;;;;;;;;;10444699;28;20021;-74
2022/03/04 12:26:07;;;;;;;30.20;15.17;;;;;;;;;;10428751;28;20083;-73
2022/03/04 12:31:13;;;;;;;27.05;15.30;;;;;;;;;;10424222;28;20021;-73
2022/03/04 12:36:15;;;;;;;32.92;14.77;;;;;;;;;;10433541;28;20039;-72
2022/03/04 12:41:16;;;;;;;30.02;15.20;;;;;;;;;;10445014;28;20037;-79
2022/03/04 12:46:18;;;;;;;18.95;8.88;;;;;;;;;;10446739;28;20049;-77
2022/03/04 12:51:21;;;;;;;16.75;8.70;;;;;;;;;;10440917;28;20027;-76
2022/03/04 12:56:22;;;;;;;16.02;7.32;;;;;;;;;;10422776;28;20116;-74
2022/03/04 13:01:23;;;;;;;12.52;7.18;;;;;;;;;;10442559;28;20032;-76
2022/03/04 13:06:24;;;;;;;17.58;7.65;;;;;;;;;;10443640;28;20487;-78
2022/03/04 13:11:30;;;;;;;23.02;8.43;;;;;;;;;;10435674;28;20017;-73
2022/03/04 13:16:46;;;;;;;18.38;7.65;;;;;;;;;;10418288;28;20021;-74
2022/03/04 13:21:56;;;;;;;15.90;6.57;;;;;;;;;;10439525;28;20043;-76
2022/03/04 13:26:58;;;;;;;21.27;10.00;;;;;;;;;;10445181;28;20031;-73
2022/03/04 13:32:05;;;;;;;16.35;7.38;;;;;;;;;;10444193;28;20021;-78
2022/03/04 13:37:13;;;;;;;17.83;8.00;;;;;;;;;;10415129;28;20542;-73
2022/03/04 13:42:15;;;;;;;12.73;7.13;;;;;;;;;;10430575;28;20021;-74
2022/03/04 13:47:26;;;;;;;13.30;6.85;;;;;;;;;;10443040;28;20560;-79
2022/03/04 13:52:28;;;;;;;16.95;8.25;;;;;;;;;;10446485;28;20021;-79
2022/03/04 13:57:30;;;;;;;16.50;8.43;;;;;;;;;;10450937;28;20093;-77
2022/03/04 14:02:37;;;;;;;14.95;6.97;;;;;;;;;;10449159;28;20102;-76
2022/03/04 14:07:45;;;;;;;12.27;7.47;;;;;;;;;;10457691;28;20052;-76
2022/03/04 14:12:45;;;;;;;11.73;6.53;;;;;;;;;;10450681;28;20463;-78
2022/03/04 14:17:45;;;;;;;13.70;6.37;;;;;;;;;;10443673;28;20045;-73
2022/03/04 14:22:46;;;;;;;11.25;6.40;;;;;;;;;;10424497;28;20053;-76
2022/03/04 14:27:52;;;;;;;11.50;7.53;;;;;;;;;;10450355;28;20025;-75
2022/03/04 14:32:53;;;;;;;13.77;6.63;;;;;;;;;;10448077;28;20681;-72
2022/03/04 14:37:53;;;;;;;13.38;7.10;;;;;;;;;;10449077;28;20025;-79
2022/03/04 14:42:55;;;;;;;15.23;6.87;;;;;;;;;;10448274;28;20417;-73
2022/03/04 14:47:56;;;;;;;14.65;6.38;;;;;;;;;;10448880;28;20284;-77
2022/03/04 14:52:57;;;;;;;15.25;7.47;;;;;;;;;;10435287;28;20564;-74
2022/03/04 14:57:59;;;;;;;13.73;6.40;;;;;;;;;;10422733;28;20099;-78
2022/03/04 15:02:59;;;;;;;12.73;6.43;;;;;;;;;;10406090;28;20120;-74
2022/03/04 15:07:59;;;;;;;14.43;7.23;;;;;;;;;;10437816;28;20029;-77
2022/03/04 15:13:00;;;;;;;13.40;7.23;;;;;;;;;;10430730;28;20850;-73
2022/03/04 15:18:01;;;;;;;16.30;8.40;;;;;;;;;;10404153;28;20017;-73
2022/03/04 15:23:03;;;;;;;25.92;8.52;;;;;;;;;;10405624;28;20392;-73
2022/03/04 15:28:05;;;;;;;16.60;8.02;;;;;;;;;;10426774;28;20474;-73
2022/03/04 15:33:05;;;;;;;15.48;8.10;;;;;;;;;;10421186;28;20017;-76
2022/03/04 15:38:05;;;;;;;19.52;9.05;;;;;;;;;;10405849;28;20032;-78
2022/03/04 15:43:05;;;;;;;13.33;7.83;;;;;;;;;;10422090;28;20088;-76
2022/03/04 15:48:06;;;;;;;17.80;8.73;;;;;;;;;;10415535;28;20025;-73
2022/03/04 15:53:06;;;;;;;19.63;10.13;;;;;;;;;;10445893;28;20267;-77
2022/03/04 15:58:06;;;;;;;28.47;13.07;;;;;;;;;;10404754;28;20021;-71
2022/03/04 16:03:07;;;;;;;31.80;12.57;;;;;;;;;;10405908;28;20022;-74
2022/03/04 16:08:07;;;;;;;22.48;11.73;;;;;;;;;;10432828;28;20491;-73
2022/03/04 16:13:08;;;;;;;24.40;11.47;;;;;;;;;;10446701;28;20463;-74
2022/03/04 16:18:08;;;;;;;39.70;12.93;;;;;;;;;;10445192;28;20399;-75
2022/03/04 16:23:08;;;;;;;24.15;11.50;;;;;;;;;;10450039;28;20021;-70
2022/03/04 16:28:11;;;;;;;25.88;11.93;;;;;;;;;;10439127;28;20359;-72
2022/03/04 16:33:11;;;;;;;34.90;12.43;;;;;;;;;;10443041;28;20108;-70
2022/03/04 16:38:11;;;;;;;27.08;13.75;;;;;;;;;;10444430;28;20150;-77
2022/03/04 16:43:12;;;;;;;30.95;12.63;;;;;;;;;;10444303;28;20049;-75
2022/03/04 16:48:16;;;;;;;31.40;12.90;;;;;;;;;;10444520;28;20044;-76
2022/03/04 16:53:17;;;;;;;23.83;11.30;;;;;;;;;;10444578;28;20021;-76
2022/03/04 16:58:19;;;;;;;27.70;11.98;;;;;;;;;;10445548;28;20024;-76
2022/03/04 17:03:20;;;;;;;27.10;12.50;;;;;;;;;;10444811;28;20313;-76
2022/03/04 17:08:20;;;;;;;23.35;11.45;;;;;;;;;;10442058;28;20022;-75
2022/03/04 17:13:21;;;;;;;19.38;9.88;;;;;;;;;;10444202;28;20032;-79
2022/03/04 17:18:21;;;;;;;19.40;10.73;;;;;;;;;;10443127;28;20025;-76
2022/03/04 17:23:21;;;;;;;31.87;11.47;;;;;;;;;;10443013;28;20540;-75
2022/03/04 17:28:21;;;;;;;30.80;12.25;;;;;;;;;;10414857;28;20099;-74
2022/03/04 17:33:22;;;;;;;32.50;13.63;;;;;;;;;;10409399;28;20029;-73
2022/03/04 17:38:23;;;;;;;27.38;13.60;;;;;;;;;;10409646;28;20021;-78
2022/03/04 17:43:23;;;;;;;34.67;16.05;;;;;;;;;;10409668;28;20057;-78
2022/03/04 17:48:27;;;;;;;30.58;14.00;;;;;;;;;;10425980;28;20037;-74
2022/03/04 17:53:28;;;;;;;23.83;12.15;;;;;;;;;;10412222;28;20032;-73
2022/03/04 17:58:28;;;;;;;37.37;13.97;;;;;;;;;;10438325;28;20104;-79
2022/03/04 18:03:28;;;;;;;24.83;13.35;;;;;;;;;;10449889;28;20036;-75
2022/03/04 18:08:28;;;;;;;37.13;14.82;;;;;;;;;;10449013;28;20017;-74
2022/03/04 18:13:29;;;;;;;35.97;16.00;;;;;;;;;;10449706;28;20472;-74
2022/03/04 18:18:29;;;;;;;37.33;19.13;;;;;;;;;;10450044;28;20273;-72
2022/03/04 18:23:29;;;;;;;43.22;19.40;;;;;;;;;;10444562;28;20537;-71
2022/03/04 18:28:30;;;;;;;35.55;17.25;;;;;;;;;;10408836;28;20422;-73
2022/03/04 18:33:30;;;;;;;49.47;17.83;;;;;;;;;;10446953;28;20086;-72
2022/03/04 18:43:50;;;;;;;40.75;19.38;;;;;;;;;;10449276;28;20307;-72
2022/03/04 18:48:51;;;;;;;45.33;19.85;;;;;;;;;;10436206;28;20021;-73
2022/03/04 18:53:52;;;;;;;40.30;20.77;;;;;;;;;;10407406;28;20025;-73
2022/03/04 18:58:52;;;;;;;47.45;22.00;;;;;;;;;;10407953;28;20024;-71
2022/03/04 19:03:52;;;;;;;41.38;19.95;;;;;;;;;;10407756;28;20032;-77
2022/03/04 19:08:52;;;;;;;56.67;21.98;;;;;;;;;;10406528;28;20585;-72
2022/03/04 19:13:53;;;;;;;50.35;20.83;;;;;;;;;;10422166;28;20021;-76
2022/03/04 19:18:53;;;;;;;40.35;20.40;;;;;;;;;;10448180;28;20024;-73
2022/03/04 19:23:54;;;;;;;44.13;19.75;;;;;;;;;;10444181;28;20078;-72
2022/03/04 19:28:54;;;;;;;46.88;20.77;;;;;;;;;;10443918;28;20446;-72
2022/03/04 19:33:56;;;;;;;56.83;19.58;;;;;;;;;;10441398;28;20398;-72
2022/03/04 19:39:00;;;;;;;31.42;16.45;;;;;;;;;;10444923;28;21056;-76
2022/03/04 19:44:00;;;;;;;36.47;14.85;;;;;;;;;;10444005;28;20419;-76
2022/03/04 19:49:02;;;;;;;43.55;17.20;;;;;;;;;;10442779;28;20017;-75
2022/03/04 19:54:05;;;;;;;50.63;17.10;;;;;;;;;;10407734;28;20510;-72
2022/03/04 19:59:05;;;;;;;29.95;13.60;;;;;;;;;;10405500;28;20056;-73
2022/03/04 20:04:06;;;;;;;27.37;13.87;;;;;;;;;;10403143;28;20719;-73
2022/03/04 20:09:06;;;;;;;41.83;14.30;;;;;;;;;;10385348;28;20147;-73
2022/03/04 20:14:06;;;;;;;26.07;13.33;;;;;;;;;;10403129;28;20009;-74
2022/03/04 20:19:07;;;;;;;31.98;12.30;;;;;;;;;;10400541;28;20021;-74
2022/03/04 20:24:07;;;;;;;33.17;16.60;;;;;;;;;;10403211;28;20039;-74
2022/03/04 20:29:07;;;;;;;36.05;13.07;;;;;;;;;;10397973;28;20021;-72
2022/03/04 20:34:07;;;;;;;45.40;14.15;;;;;;;;;;10402715;28;20118;-75
2022/03/04 20:39:08;;;;;;;36.20;15.60;;;;;;;;;;10405182;28;20017;-71
2022/03/04 20:44:08;;;;;;;36.37;16.13;;;;;;;;;;10400462;28;20456;-72
2022/03/04 20:49:08;;;;;;;30.70;13.93;;;;;;;;;;10398827;28;20017;-73
2022/03/04 20:54:09;;;;;;;43.53;16.90;;;;;;;;;;10402362;28;20017;-72
2022/03/04 20:59:09;;;;;;;39.17;16.70;;;;;;;;;;10401883;28;20445;-72
2022/03/04 21:04:09;;;;;;;37.57;17.23;;;;;;;;;;10405005;28;20116;-71
2022/03/04 21:09:13;;;;;;;35.88;16.80;;;;;;;;;;10409533;28;20271;-73
2022/03/04 21:14:14;;;;;;;31.75;15.80;;;;;;;;;;10411555;28;20035;-71
2022/03/04 21:19:15;;;;;;;29.33;15.20;;;;;;;;;;10405095;28;20166;-72
2022/03/04 21:24:15;;;;;;;33.70;14.98;;;;;;;;;;10408415;28;20023;-73
2022/03/04 21:29:15;;;;;;;26.27;13.40;;;;;;;;;;10409015;28;20094;-73
2022/03/04 21:34:16;;;;;;;38.83;17.33;;;;;;;;;;10406632;28;20074;-72
2022/03/04 21:39:16;;;;;;;31.17;13.57;;;;;;;;;;10423475;28;20041;-72
2022/03/04 21:44:17;;;;;;;30.50;14.98;;;;;;;;;;10451815;28;20369;-75
2022/03/04 21:49:18;;;;;;;31.27;15.70;;;;;;;;;;10453335;28;20099;-71
2022/03/04 21:54:18;;;;;;;30.45;14.30;;;;;;;;;;10451936;28;20021;-73
2022/03/04 21:59:18;;;;;;;27.92;14.50;;;;;;;;;;10451763;28;20036;-74
2022/03/04 22:04:18;;;;;;;27.38;13.95;;;;;;;;;;10426241;28;20465;-71
2022/03/04 22:09:21;;;;;;;27.13;13.70;;;;;;;;;;10411188;28;20091;-72
2022/03/04 22:14:21;;;;;;;33.83;16.10;;;;;;;;;;10393202;28;20313;-74
2022/03/04 22:19:22;;;;;;;28.20;14.73;;;;;;;;;;10409323;28;20021;-70
2022/03/04 22:24:22;;;;;;;31.90;13.80;;;;;;;;;;10410786;28;20018;-74
2022/03/04 22:29:22;;;;;;;32.72;15.10;;;;;;;;;;10410927;28;20099;-72
2022/03/04 22:34:23;;;;;;;36.43;15.73;;;;;;;;;;10409397;28;20018;-70
2022/03/04 22:39:23;;;;;;;37.93;16.70;;;;;;;;;;10409227;28;20100;-71
2022/03/04 22:44:26;;;;;;;25.67;14.13;;;;;;;;;;10408816;28;20103;-72
2022/03/04 22:49:27;;;;;;;25.80;15.60;;;;;;;;;;10392403;28;20278;-71
2022/03/04 22:54:27;;;;;;;35.08;15.77;;;;;;;;;;10409702;28;20044;-71
2022/03/04 22:59:27;;;;;;;38.58;15.25;;;;;;;;;;10409761;28;20025;-71
2022/03/04 23:11:22;;;;;;;40.38;16.02;;;;;;;;;;10409365;28;20431;-74
2022/03/04 23:15:07;;;;;;;27.42;13.00;;;;;;;;;;10413553;28;20039;-70
2022/03/04 23:20:09;;;;;;;36.05;16.83;;;;;;;;;;10408414;28;20024;-71
2022/03/04 23:25:09;;;;;;;49.85;18.10;;;;;;;;;;10409961;28;20530;-71
2022/03/04 23:30:10;;;;;;;43.37;17.03;;;;;;;;;;10408559;28;20017;-71
2022/03/04 23:35:10;;;;;;;38.20;18.52;;;;;;;;;;10407409;28;20075;-71
2022/03/04 23:40:11;;;;;;;38.53;16.67;;;;;;;;;;10407402;28;20121;-71
2022/03/04 23:45:11;;;;;;;30.88;17.02;;;;;;;;;;10406514;28;20813;-72
2022/03/04 23:50:11;;;;;;;34.37;16.57;;;;;;;;;;10406577;28;20024;-72
2022/03/04 23:55:12;;;;;;;34.53;15.10;;;;;;;;;;10406715;28;20145;-71
